Terminal Aerodrome Forecast
Issued by NWS

Home | Current Version | Previous Version | Text Only | Print | Product List | Glossary On
Versions: 1 2 3 4 5 6 7 8 9 10 11 12 13 14 15 16 17 18 19 20 21 22 23 24 25 26
000
FTUS46 KSEW 230520
TAFSEA
TAF
KSEA 230520Z 2306/2412 16006KT P6SM SCT030 SCT150
     FM231300 11007KT P6SM -RA SCT030 BKN050 OVC060
     FM231600 13011KT 6SM -RA BR SCT018 OVC025 WS020/19040KT
     FM240300 16009KT P6SM -RA SCT025 OVC035=

USA.gov is the U.S. government's official web portal to all federal, state and local government web resources and services.